KDAN/DAN METAR and TAF weather

Enter ICAO airport designator
Station Type Date Time Source
KDAN METAR 2020/04/09 18:53 UTC NOAA

KDAN 091853Z AUTO 26017G27KT 10SM CLR 25/04 A2948 RMK AO2 PK WND 25039/1818 SLP972 T02500044


Station Type Date Time Source
KDAN Decoded METAR 2020/04/09 18:53 UTC NOAA

DANVILLE REGIONAL AIRPORT, VA, United States (KDAN) 36-34N 079-20W 175M
Apr 09, 2020 - 02:53 PM EDT / 2020.04.09 1853 UTC
Wind: from the W (260 degrees) at 20 MPH (17 KT) gusting to 31 MPH (27 KT):0
Visibility: 10 mile(s):0
Sky conditions: clear
Temperature: 77.0 F (25.0 C)
Dew Point: 39.9 F (4.4 C)
Relative Humidity: 26%
Pressure (altimeter): 29.48 in. Hg (998 hPa)
ob: KDAN 091853Z AUTO 26017G27KT 10SM CLR 25/04 A2948 RMK AO2 PK WND 25039/1818 SLP972 T02500044
cycle: 19

Station Type Date Time Source
KDAN TAF 2020/04/09 18:54 UTC NOAA

TAF KDAN 091740Z 0918/1018 27014G29KT P6SM SKC
FM100000 27009G18KT P6SM SKC
FM100600 27006KT P6SM SCT100
FM100900 29010KT P6SM FEW100
FM101200 29017KT P6SM SKC
FM101500 30021G30KT P6SM SKC

Example: see airport list